Terminal Aerodrome Forecast
Issued by NWS Topeka, KS

Home | Current Version | Previous Version | Graphics & Text | Print | Product List | Glossary On
Versions: 1 2 3 4 5 6 7 8 9 10 11 12 13 14 15 16 17 18
974
FTUS43 KTOP 152017 AAA
TAFTOP
TAF AMD
KTOP 152017Z 1520/1618 08006KT 2SM -RA BR OVC004
      TEMPO 1520/1523 3SM -RA BR OVC005=

USA.gov is the U.S. government's official web portal to all federal, state and local government web resources and services.